Time;durP1;ratioP1;P1;durP2;ratioP2;P2;SDS_P1;SDS_P2;PMS_P1;PMS_P2;Temp;Humidity;BMP_temperature;BMP_pressure;BME280_temperature;BME280_humidity;BME280_pressure;Samples;Min_cycle;Max_cycle;Signal;HPM_P1;HPM_P2
2021/05/21 00:01:07;;;;;;;;;;;;;;;14.79;74.45;99627.60;1781539;80;21674;-67
2021/05/21 00:03:34;;;;;;;;;;;;;;;14.78;74.49;99626.52;1780904;80;20608;-65
2021/05/21 00:06:01;;;;;;;;;;;;;;;14.76;74.57;99625.44;1778454;80;20580;-67
2021/05/21 00:08:28;;;;;;;;;;;;;;;14.77;74.59;99620.87;1781123;80;20191;-66
2021/05/21 00:10:54;;;;;;;;;;;;;;;14.80;74.56;99627.88;1780756;80;20148;-67
2021/05/21 00:13:23;;;;;;;;;;;;;;;14.84;74.51;99627.64;1779801;80;21065;-67
2021/05/21 00:15:51;;;;;;;;;;;;;;;14.85;74.48;99625.73;1781065;80;20171;-66
2021/05/21 00:18:18;;;;;;;;;;;;;;;14.87;74.44;99629.80;1780651;80;20144;-66
2021/05/21 00:20:44;;;;;;;;;;;;;;;14.88;74.34;99629.25;1776733;80;20215;-63
2021/05/21 00:23:11;;;;;;;;;;;;;;;14.88;74.24;99631.44;1778525;80;20140;-65
2021/05/21 00:25:38;;;;;;;;;;;;;;;14.89;74.09;99634.94;1776838;80;21091;-65
2021/05/21 00:28:04;;;;;;;;;;;;;;;14.88;73.93;99635.48;1776843;80;20158;-65
2021/05/21 00:30:31;;;;;;;;;;;;;;;14.86;73.98;99635.47;1776909;80;20140;-65
2021/05/21 00:32:58;;;;;;;;;;;;;;;14.83;74.05;99632.75;1776863;80;20131;-64
2021/05/21 00:35:25;;;;;;;;;;;;;;;14.83;74.06;99633.30;1777174;80;20191;-64
2021/05/21 00:37:51;;;;;;;;;;;;;;;14.84;73.98;99634.90;1778597;80;21594;-63
2021/05/21 00:40:18;;;;;;;;;;;;;;;14.83;73.87;99633.30;1771637;80;20160;-64
2021/05/21 00:42:45;;;;;;;;;;;;;;;14.82;73.79;99635.71;1778935;80;20192;-65
2021/05/21 00:45:11;;;;;;;;;;;;;;;14.82;73.76;99640.56;1777189;80;20224;-66
2021/05/21 00:47:38;;;;;;;;;;;;;;;14.85;73.80;99640.58;1778761;80;20144;-66
2021/05/21 00:50:06;;;;;;;;;;;;;;;14.84;73.52;99634.38;1777100;80;22223;-66
2021/05/21 00:52:33;;;;;;;;;;;;;;;14.86;73.24;99632.22;1775702;80;20184;-66
2021/05/21 00:55:00;;;;;;;;;;;;;;;14.87;72.92;99627.66;1775740;80;20155;-66
2021/05/21 00:57:27;;;;;;;;;;;;;;;14.86;72.62;99634.92;1777161;80;20454;-66
2021/05/21 00:59:54;;;;;;;;;;;;;;;14.86;72.32;99634.92;1777160;80;20140;-65
2021/05/21 01:02:21;;;;;;;;;;;;;;;14.88;72.22;99633.30;1777041;80;20654;-66
2021/05/21 01:04:48;;;;;;;;;;;;;;;14.87;72.09;99625.75;1775494;80;20251;-65
2021/05/21 01:07:15;;;;;;;;;;;;;;;14.86;71.89;99627.37;1777111;80;20187;-66
2021/05/21 01:09:41;;;;;;;;;;;;;;;14.85;71.72;99625.73;1777142;80;20564;-64
2021/05/21 01:12:08;;;;;;;;;;;;;;;14.80;71.51;99623.03;1777321;80;20168;-63
2021/05/21 01:14:37;;;;;;;;;;;;;;;14.77;71.33;99631.11;1777111;80;21031;-64
2021/05/21 01:17:04;;;;;;;;;;;;;;;14.70;71.19;99624.59;1776485;80;20164;-63
2021/05/21 01:19:31;;;;;;;;;;;;;;;14.66;71.20;99626.22;1776884;78;20172;-64
2021/05/21 01:22:00;;;;;;;;;;;;;;;14.62;71.30;99627.81;1777007;80;20159;-64
2021/05/21 01:24:26;;;;;;;;;;;;;;;14.59;71.43;99629.66;1775755;80;20528;-65
2021/05/21 01:26:57;;;;;;;;;;;;;;;14.54;71.54;99629.63;1777112;80;21080;-64
2021/05/21 01:29:21;;;;;;;;;;;;;;;14.53;71.67;99622.08;1776556;80;20143;-64
2021/05/21 01:31:49;;;;;;;;;;;;;;;14.49;71.74;99622.33;1777070;80;20568;-65
2021/05/21 01:34:16;;;;;;;;;;;;;;;14.47;71.85;99629.88;1777037;80;20195;-64
2021/05/21 01:36:43;;;;;;;;;;;;;;;14.46;71.97;99626.09;1776928;80;20552;-64
2021/05/21 01:39:11;;;;;;;;;;;;;;;14.45;72.08;99629.86;1778664;80;21037;-64
2021/05/21 01:41:38;;;;;;;;;;;;;;;14.45;72.16;99625.81;1778698;80;20152;-66
2021/05/21 01:44:06;;;;;;;;;;;;;;;14.46;71.98;99626.09;1776929;80;20171;-67
2021/05/21 01:46:33;;;;;;;;;;;;;;;14.44;71.70;99624.17;1777061;80;20342;-66
2021/05/21 01:49:00;;;;;;;;;;;;;;;14.42;71.47;99629.83;1775746;80;20156;-63
2021/05/21 01:51:27;;;;;;;;;;;;;;;14.42;71.32;99630.38;1777146;80;21101;-64
2021/05/21 01:54:15;;;;;;;;;;;;;;;14.40;71.00;99633.34;1776996;80;20164;-62
2021/05/21 01:56:41;;;;;;;;;;;;;;;14.35;70.85;99634.64;1776238;80;20580;-63
2021/05/21 01:59:08;;;;;;;;;;;;;;;14.35;70.61;99632.78;1777270;80;20171;-63
2021/05/21 02:01:35;;;;;;;;;;;;;;;14.35;70.25;99630.08;1776462;80;20162;-63
2021/05/21 02:04:03;;;;;;;;;;;;;;;14.33;69.86;99638.95;1776342;80;20540;-62
2021/05/21 02:06:30;;;;;;;;;;;;;;;14.32;69.43;99640.01;1773343;80;20214;-63
2021/05/21 02:08:57;;;;;;;;;;;;;;;14.29;69.02;99642.43;1776785;80;20536;-63
2021/05/21 02:11:23;;;;;;;;;;;;;;;14.24;68.40;99647.26;1774910;80;20168;-64
2021/05/21 02:13:50;;;;;;;;;;;;;;;14.20;68.11;99659.63;1719222;83;20195;-63
2021/05/21 02:16:17;;;;;;;;;;;;;;;14.13;67.79;99653.13;1744187;82;21044;-63
2021/05/21 02:18:45;;;;;;;;;;;;;;;14.09;67.62;99649.31;1784156;80;20191;-63
2021/05/21 02:21:12;;;;;;;;;;;;;;;14.06;67.70;99656.58;1784197;80;20528;-63
2021/05/21 02:23:39;;;;;;;;;;;;;;;14.06;67.55;99657.09;1784230;80;20179;-65
2021/05/21 02:26:07;;;;;;;;;;;;;;;14.05;67.27;99653.59;1780987;80;20575;-64
2021/05/21 02:28:33;;;;;;;;;;;;;;;14.01;66.53;99660.02;1785280;80;21854;-66
2021/05/21 02:31:00;;;;;;;;;;;;;;;13.95;66.25;99662.41;1785283;80;20179;-65
2021/05/21 02:33:27;;;;;;;;;;;;;;;13.89;66.38;99660.73;1784931;80;20167;-65
2021/05/21 02:35:54;;;;;;;;;;;;;;;13.90;66.91;99664.23;1784920;80;20607;-65
2021/05/21 02:38:21;;;;;;;;;;;;;;;13.93;67.01;99664.55;1784557;80;20560;-65
2021/05/21 02:40:48;;;;;;;;;;;;;;;13.99;67.06;99664.06;1784280;80;21102;-66
2021/05/21 02:43:15;;;;;;;;;;;;;;;14.02;66.70;99669.73;1784694;80;20179;-62
2021/05/21 02:45:42;;;;;;;;;;;;;;;14.04;66.26;99667.33;1784795;80;20207;-65
2021/05/21 02:48:08;;;;;;;;;;;;;;;14.04;65.96;99675.41;1785170;80;20232;-64
2021/05/21 02:50:35;;;;;;;;;;;;;;;14.02;65.92;99666.23;1784727;80;20156;-65
2021/05/21 02:53:02;;;;;;;;;;;;;;;14.03;65.99;99671.91;1784982;80;21169;-63
2021/05/21 02:55:28;;;;;;;;;;;;;;;14.04;65.63;99674.06;1784835;80;20388;-62
2021/05/21 02:57:55;;;;;;;;;;;;;;;14.06;65.33;99682.17;1785001;80;20183;-62
2021/05/21 03:00:21;;;;;;;;;;;;;;;14.07;65.20;99680.28;1788817;80;20163;-64
2021/05/21 03:02:48;;;;;;;;;;;;;;;14.08;65.07;99685.41;1785194;80;20183;-63
2021/05/21 03:05:22;;;;;;;;;;;;;;;14.09;64.93;99690.26;1785010;80;21102;-64
2021/05/21 03:07:43;;;;;;;;;;;;;;;14.11;65.65;99696.22;1779956;80;20209;-64
2021/05/21 03:10:11;;;;;;;;;;;;;;;14.18;65.95;99703.02;1784874;80;20690;-64
2021/05/21 03:12:37;;;;;;;;;;;;;;;14.28;65.80;99708.19;1785083;80;20143;-64
2021/05/21 03:15:06;;;;;;;;;;;;;;;14.32;64.68;99704.72;1780882;80;20148;-63
2021/05/21 03:17:33;;;;;;;;;;;;;;;14.31;65.02;99711.72;1776886;80;21173;-67
2021/05/21 03:20:00;;;;;;;;;;;;;;;14.34;64.87;99716.07;1771905;80;20168;-66
2021/05/21 03:22:27;;;;;;;;;;;;;;;14.35;64.75;99718.22;1766028;81;20160;-66
2021/05/21 03:24:54;;;;;;;;;;;;;;;14.41;65.07;99725.81;1766060;81;20251;-65
2021/05/21 03:27:21;;;;;;;;;;;;;;;14.50;65.22;99725.08;1765979;79;20188;-65
2021/05/21 03:29:48;;;;;;;;;;;;;;;14.62;65.34;99733.52;1765972;81;21081;-66
2021/05/21 03:32:15;;;;;;;;;;;;;;;14.73;64.88;99733.07;1765935;79;20560;-66
2021/05/21 03:34:41;;;;;;;;;;;;;;;14.76;64.08;99742.79;1766243;81;20212;-66
2021/05/21 03:37:08;;;;;;;;;;;;;;;14.71;64.35;99742.78;1765949;81;20272;-67
2021/05/21 03:39:35;;;;;;;;;;;;;;;14.71;64.43;99744.13;1766080;79;20170;-67
2021/05/21 03:42:02;;;;;;;;;;;;;;;14.67;64.46;99747.06;1766047;79;21105;-67
2021/05/21 03:44:28;;;;;;;;;;;;;;;14.64;64.54;99751.08;1765893;81;20207;-66
2021/05/21 03:46:57;;;;;;;;;;;;;;;14.61;64.32;99747.56;1765916;79;20195;-66
2021/05/21 03:49:24;;;;;;;;;;;;;;;14.50;64.23;99749.35;1766177;81;20231;-66
2021/05/21 03:51:51;;;;;;;;;;;;;;;14.37;64.78;99745.76;1765908;79;20227;-67
2021/05/21 03:54:18;;;;;;;;;;;;;;;14.36;65.19;99746.81;1765913;81;21057;-67
2021/05/21 03:56:44;;;;;;;;;;;;;;;14.37;65.54;99745.20;1765834;81;20179;-66
2021/05/21 03:59:11;;;;;;;;;;;;;;;14.42;65.12;99751.17;1761442;81;20269;-66
2021/05/21 04:01:39;;;;;;;;;;;;;;;14.44;64.95;99750.39;1766012;79;20267;-66
2021/05/21 04:04:05;;;;;;;;;;;;;;;14.48;64.18;99752.03;1768131;79;20164;-65
2021/05/21 04:06:32;;;;;;;;;;;;;;;14.47;63.72;99753.09;1766000;81;21074;-64
2021/05/21 04:09:00;;;;;;;;;;;;;;;14.52;64.08;99757.19;1765973;81;20199;-64
2021/05/21 04:11:26;;;;;;;;;;;;;;;14.60;62.50;99753.19;1766138;81;20195;-64
2021/05/21 04:13:53;;;;;;;;;;;;;;;14.60;62.14;99751.29;1767702;79;20175;-65
2021/05/21 04:16:20;;;;;;;;;;;;;;;14.61;61.81;99754.82;1767673;79;20164;-64
2021/05/21 04:18:48;;;;;;;;;;;;;;;14.62;60.76;99754.59;1762804;81;21095;-65
2021/05/21 04:21:15;;;;;;;;;;;;;;;14.62;61.04;99754.59;1774522;80;20138;-65
2021/05/21 04:23:42;;;;;;;;;;;;;;;14.68;60.46;99752.73;1776838;80;20156;-65
2021/05/21 04:26:09;;;;;;;;;;;;;;;14.71;60.12;99748.97;1776954;80;20251;-64
2021/05/21 04:28:35;;;;;;;;;;;;;;;14.80;60.00;99752.55;1776907;80;20175;-64
2021/05/21 04:31:02;;;;;;;;;;;;;;;14.94;60.36;99755.03;1773947;80;21026;-64
2021/05/21 04:33:29;;;;;;;;;;;;;;;15.13;59.51;99754.05;1777037;80;20136;-67
2021/05/21 04:35:56;;;;;;;;;;;;;;;15.32;59.48;99762.49;1778658;80;20144;-65
2021/05/21 04:38:23;;;;;;;;;;;;;;;15.52;58.39;99763.66;1778649;80;20167;-65
2021/05/21 04:40:49;;;;;;;;;;;;;;;15.64;57.33;99760.17;1777090;80;20163;-65
2021/05/21 04:43:25;;;;;;;;;;;;;;;15.79;57.43;99760.77;1776847;80;21253;-63
2021/05/21 04:45:52;;;;;;;;;;;;;;;16.10;56.95;99760.81;1775045;80;20192;-66
2021/05/21 04:48:19;;;;;;;;;;;;;;;16.65;56.61;99758.34;1776911;80;20164;-65
2021/05/21 04:50:46;;;;;;;;;;;;;;;17.31;55.37;99761.45;1778548;80;20294;-65
2021/05/21 04:53:13;;;;;;;;;;;;;;;17.87;53.12;99763.56;1775207;80;20159;-65
2021/05/21 04:55:42;;;;;;;;;;;;;;;18.21;51.62;99774.48;1773495;80;21719;-60
2021/05/21 04:58:09;;;;;;;;;;;;;;;18.34;50.05;99770.84;1775331;80;20160;-60
2021/05/21 05:00:36;;;;;;;;;;;;;;;18.18;50.56;99776.41;1777188;80;20532;-60
2021/05/21 05:03:12;;;;;;;;;;;;;;;17.99;51.70;99782.22;1773275;79;20220;-60
2021/05/21 05:05:39;;;;;;;;;;;;;;;17.93;51.49;99786.06;1771821;80;20572;-60
2021/05/21 05:08:05;;;;;;;;;;;;;;;17.87;51.35;99783.90;1775464;80;20568;-62
2021/05/21 05:10:33;;;;;;;;;;;;;;;17.78;50.68;99782.33;1778278;80;20164;-60
2021/05/21 05:13:00;;;;;;;;;;;;;;;17.63;51.54;99785.13;1776763;80;20136;-61
2021/05/21 05:15:27;;;;;;;;;;;;;;;17.63;53.38;99775.65;1776884;80;20564;-61
2021/05/21 05:17:54;;;;;;;;;;;;;;;17.78;52.09;99778.25;1777139;80;20156;-61
2021/05/21 05:20:23;;;;;;;;;;;;;;;17.89;51.08;99780.91;1778116;80;21101;-61
2021/05/21 05:22:52;;;;;;;;;;;;;;;17.99;51.25;99784.41;1779280;80;20140;-61
2021/05/21 05:25:18;;;;;;;;;;;;;;;18.12;50.88;99785.66;1776018;80;20564;-62
2021/05/21 05:27:45;;;;;;;;;;;;;;;18.24;51.28;99783.97;1777025;80;20175;-61
2021/05/21 05:30:14;;;;;;;;;;;;;;;18.34;50.11;99781.17;1779489;80;20164;-61
2021/05/21 05:32:41;;;;;;;;;;;;;;;18.46;47.97;99786.75;1778266;80;21004;-61
2021/05/21 05:35:09;;;;;;;;;;;;;;;18.54;49.29;99786.16;1780708;80;20608;-61
2021/05/21 05:37:35;;;;;;;;;;;;;;;18.68;49.41;99786.28;1779283;80;20497;-61
2021/05/21 05:40:03;;;;;;;;;;;;;;;18.87;49.48;99789.11;1779643;80;20140;-60
2021/05/21 05:42:31;;;;;;;;;;;;;;;19.06;48.73;99791.34;1781459;79;20132;-61
2021/05/21 05:44:58;;;;;;;;;;;;;;;19.21;47.92;99790.39;1780651;80;21158;-60
2021/05/21 05:47:25;;;;;;;;;;;;;;;19.39;46.41;99792.88;1780142;80;20159;-60
2021/05/21 05:49:52;;;;;;;;;;;;;;;19.51;44.69;99795.17;1780488;80;20205;-61
2021/05/21 05:52:18;;;;;;;;;;;;;;;19.54;45.20;99789.16;1780789;80;20167;-61
2021/05/21 05:54:45;;;;;;;;;;;;;;;19.61;45.85;99798.32;1779517;80;20219;-60
2021/05/21 05:57:12;;;;;;;;;;;;;;;19.74;45.08;99786.72;1780944;80;21795;-60
2021/05/21 05:59:39;;;;;;;;;;;;;;;19.85;42.86;99786.05;1780750;80;20164;-61
2021/05/21 06:02:06;;;;;;;;;;;;;;;19.85;41.23;99795.56;1781093;80;20222;-59
2021/05/21 06:04:33;;;;;;;;;;;;;;;19.65;41.07;99785.73;1779801;80;20378;-60
2021/05/21 06:07:00;;;;;;;;;;;;;;;19.49;43.18;99795.20;1781006;80;20547;-60
2021/05/21 06:09:28;;;;;;;;;;;;;;;19.46;42.16;99790.35;1776497;80;21089;-60
2021/05/21 06:11:55;;;;;;;;;;;;;;;19.50;41.94;99800.91;1780006;80;21553;-59
2021/05/21 06:14:22;;;;;;;;;;;;;;;19.55;41.03;99802.19;1779045;79;20228;-60
2021/05/21 06:16:49;;;;;;;;;;;;;;;19.48;41.37;99797.13;1780857;80;20167;-61
2021/05/21 06:19:16;;;;;;;;;;;;;;;19.38;42.26;99799.97;1755028;80;20172;-60
2021/05/21 06:21:43;;;;;;;;;;;;;;;19.42;42.61;99803.73;1781376;80;21651;-61
2021/05/21 06:24:11;;;;;;;;;;;;;;;19.57;42.85;99804.08;1778203;80;20155;-61
2021/05/21 06:26:42;;;;;;;;;;;;;;;19.74;42.75;99802.20;1780891;80;20195;-61
2021/05/21 06:29:06;;;;;;;;;;;;;;;19.88;42.89;99798.25;1780751;78;20525;-61
2021/05/21 06:31:33;;;;;;;;;;;;;;;20.03;42.67;99804.02;1780894;80;20219;-60
2021/05/21 06:34:00;;;;;;;;;;;;;;;20.18;43.02;99802.97;1777779;80;21043;-61
2021/05/21 06:36:27;;;;;;;;;;;;;;;20.28;41.83;99807.69;1779452;78;20199;-60
2021/05/21 06:38:54;;;;;;;;;;;;;;;20.27;41.64;99809.35;1781129;80;20187;-61
2021/05/21 06:41:20;;;;;;;;;;;;;;;20.16;41.48;99807.35;1781022;80;20223;-61
2021/05/21 06:43:47;;;;;;;;;;;;;;;20.04;41.33;99800.20;1776208;80;20199;-63
2021/05/21 06:46:14;;;;;;;;;;;;;;;19.78;41.09;99808.72;1780991;80;22197;-65
2021/05/21 06:48:42;;;;;;;;;;;;;;;19.55;41.81;99813.89;1780668;80;20159;-64
2021/05/21 06:51:10;;;;;;;;;;;;;;;19.49;42.45;99802.00;1780599;80;20175;-65
2021/05/21 06:53:37;;;;;;;;;;;;;;;19.55;43.75;99804.38;1777231;80;20571;-65
2021/05/21 06:56:04;;;;;;;;;;;;;;;19.74;42.78;99806.28;1780072;80;20175;-64
2021/05/21 06:58:31;;;;;;;;;;;;;;;19.79;43.99;99803.55;1780020;80;21688;-64
2021/05/21 07:00:59;;;;;;;;;;;;;;;19.89;43.71;99803.93;1779009;80;20195;-65
2021/05/21 07:03:31;;;;;;;;;;;;;;;19.98;42.97;99802.72;1780405;79;20124;-64
2021/05/21 07:05:58;;;;;;;;;;;;;;;19.99;43.76;99811.14;1779894;80;20200;-63
2021/05/21 07:08:25;;;;;;;;;;;;;;;20.06;43.37;99812.95;1779058;80;20155;-65
2021/05/21 07:10:52;;;;;;;;;;;;;;;20.04;42.93;99806.44;1779728;80;21103;-65
2021/05/21 07:13:19;;;;;;;;;;;;;;;19.98;43.44;99807.62;1779847;80;20199;-65
2021/05/21 07:15:45;;;;;;;;;;;;;;;20.07;43.67;99814.01;1754607;80;20232;-64
2021/05/21 07:18:12;;;;;;;;;;;;;;;20.16;42.95;99812.00;1780468;80;20248;-65
2021/05/21 07:20:45;;;;;;;;;;;;;;;20.25;43.03;99812.37;1780418;80;20211;-63
2021/05/21 07:23:10;;;;;;;;;;;;;;;20.33;42.23;99814.16;1780064;80;21704;-65
2021/05/21 07:25:39;;;;;;;;;;;;;;;20.36;42.23;99808.13;1777116;80;20203;-64
2021/05/21 07:28:06;;;;;;;;;;;;;;;20.46;42.05;99818.31;1780039;80;20215;-65
2021/05/21 07:30:35;;;;;;;;;;;;;;;20.58;42.44;99804.77;1780171;80;20200;-65
2021/05/21 07:33:01;;;;;;;;;;;;;;;20.69;42.53;99804.08;1780431;80;20591;-63
2021/05/21 07:35:30;;;;;;;;;;;;;;;20.77;41.71;99808.83;1780462;80;21106;-65
2021/05/21 07:37:58;;;;;;;;;;;;;;;20.79;41.77;99819.67;1780407;80;20179;-65
2021/05/21 07:40:25;;;;;;;;;;;;;;;20.81;41.99;99828.34;1776981;80;20167;-65
2021/05/21 07:42:52;;;;;;;;;;;;;;;20.83;41.49;99820.70;1776998;80;20143;-64
2021/05/21 07:45:19;;;;;;;;;;;;;;;20.87;41.85;99822.82;1780227;80;20275;-64
2021/05/21 07:47:46;;;;;;;;;;;;;;;20.94;41.73;99825.97;1780280;80;21145;-66
2021/05/21 07:50:13;;;;;;;;;;;;;;;21.05;40.94;99829.30;1779709;80;20159;-65
2021/05/21 07:52:39;;;;;;;;;;;;;;;21.05;40.94;99834.18;1777279;80;20507;-65
2021/05/21 07:55:07;;;;;;;;;;;;;;;21.09;41.16;99837.92;1780635;80;20620;-65
2021/05/21 07:57:35;;;;;;;;;;;;;;;21.21;40.71;99837.99;1775518;80;20563;-65
2021/05/21 08:00:05;;;;;;;;;;;;;;;21.31;39.56;99837.80;1776806;80;21784;-63
2021/05/21 08:02:33;;;;;;;;;;;;;;;21.39;36.43;99823.44;1778803;80;20176;-65
2021/05/21 08:05:01;;;;;;;;;;;;;;;21.19;36.96;99836.94;1754909;80;20239;-63
2021/05/21 08:07:28;;;;;;;;;;;;;;;21.02;38.29;99838.88;1780405;80;20239;-63
2021/05/21 08:09:55;;;;;;;;;;;;;;;20.92;37.57;99836.34;1780078;80;20466;-65
2021/05/21 08:12:22;;;;;;;;;;;;;;;20.79;37.25;99831.14;1780390;80;20995;-65
2021/05/21 08:14:50;;;;;;;;;;;;;;;20.68;37.77;99829.69;1776321;80;20533;-64
2021/05/21 08:17:17;;;;;;;;;;;;;;;20.57;38.30;99843.44;1780125;80;21162;-64
2021/05/21 08:19:44;;;;;;;;;;;;;;;20.55;38.26;99840.75;1780493;80;20713;-64
2021/05/21 08:22:10;;;;;;;;;;;;;;;20.57;38.28;99847.53;1770320;80;20643;-64
2021/05/21 08:24:37;;;;;;;;;;;;;;;20.63;37.26;99846.89;1764142;81;20576;-64
2021/05/21 08:27:04;;;;;;;;;;;;;;;20.49;37.07;99838.66;1761503;81;20191;-65
2021/05/21 08:29:33;;;;;;;;;;;;;;;20.21;37.95;99840.47;1764677;81;20258;-64
2021/05/21 08:32:01;;;;;;;;;;;;;;;20.06;39.84;99837.43;1764815;79;20217;-65
2021/05/21 08:34:28;;;;;;;;;;;;;;;20.10;39.82;99837.91;1764936;81;20191;-64
2021/05/21 08:36:56;;;;;;;;;;;;;;;20.13;39.32;99837.88;1765428;81;20219;-65
2021/05/21 08:39:23;;;;;;;;;;;;;;;20.10;39.21;99835.18;1764778;81;20148;-65
2021/05/21 08:41:50;;;;;;;;;;;;;;;20.13;38.69;99844.11;1764933;81;20175;-65
2021/05/21 08:44:18;;;;;;;;;;;;;;;20.17;39.17;99848.43;1763228;81;20168;-65
2021/05/21 08:46:45;;;;;;;;;;;;;;;20.19;38.59;99848.93;1765467;81;20655;-63
2021/05/21 08:49:12;;;;;;;;;;;;;;;20.21;39.44;99854.08;1765412;81;21102;-66
2021/05/21 08:51:38;;;;;;;;;;;;;;;20.27;39.68;99855.08;1765195;79;20231;-64
2021/05/21 08:54:07;;;;;;;;;;;;;;;20.25;38.33;99850.47;1765821;81;20156;-63
2021/05/21 08:56:34;;;;;;;;;;;;;;;20.18;38.27;99854.67;1764045;81;20223;-66
2021/05/21 08:59:00;;;;;;;;;;;;;;;20.06;39.69;99859.19;1765375;81;20568;-65
2021/05/21 09:01:27;;;;;;;;;;;;;;;20.05;38.03;99865.20;1764892;81;20596;-65
2021/05/21 09:04:02;;;;;;;;;;;;;;;20.04;38.03;99863.56;1761296;80;20600;-64
2021/05/21 09:06:30;;;;;;;;;;;;;;;20.08;37.34;99861.89;1762440;81;20140;-65
2021/05/21 09:08:59;;;;;;;;;;;;;;;20.11;38.16;99854.49;1765422;81;20215;-64
2021/05/21 09:11:38;;;;;;;;;;;;;;;20.15;38.55;99856.06;1765664;79;20148;-65
2021/05/21 09:14:11;;;;;;;;;;;;;;;20.20;39.52;99849.73;1765120;80;21085;-64
2021/05/21 09:16:39;;;;;;;;;;;;;;;20.32;39.33;99860.99;1765019;81;20175;-64
2021/05/21 09:19:11;;;;;;;;;;;;;;;20.48;39.35;99846.59;1764692;81;20172;-65
2021/05/21 09:21:53;;;;;;;;;;;;;;;20.63;38.21;99850.42;1764682;78;20152;-64
2021/05/21 09:24:25;;;;;;;;;;;;;;;20.69;38.67;99854.46;1774688;79;20156;-64
2021/05/21 09:26:52;;;;;;;;;;;;;;;20.71;38.80;99858.48;1747471;81;21099;-62
2021/05/21 09:29:25;;;;;;;;;;;;;;;20.76;38.79;99852.13;1744184;82;20201;-64
2021/05/21 09:31:52;;;;;;;;;;;;;;;20.78;37.22;99852.66;1727200;82;20129;-64
2021/05/21 09:34:30;;;;;;;;;;;;;;;20.65;37.16;99847.39;1743360;82;20201;-64
2021/05/21 09:36:57;;;;;;;;;;;;;;;20.55;37.06;99846.20;1739198;80;20181;-64
2021/05/21 09:39:24;;;;;;;;;;;;;;;20.41;37.63;99859.77;1784118;80;21110;-64
2021/05/21 09:41:53;;;;;;;;;;;;;;;20.29;38.30;99856.94;1784669;80;20163;-65
2021/05/21 09:44:20;;;;;;;;;;;;;;;20.26;39.94;99850.73;1784536;80;20163;-65
2021/05/21 09:46:49;;;;;;;;;;;;;;;20.28;38.81;99838.19;1782422;80;20529;-63
2021/05/21 09:49:33;;;;;;;;;;;;;;;20.22;38.40;99853.78;1783322;80;20139;-63
2021/05/21 09:52:03;;;;;;;;;;;;;;;20.12;39.30;99843.84;1782218;80;21785;-64
2021/05/21 09:54:56;;;;;;;;;;;;;;;20.10;39.08;99846.63;1745064;82;20181;-64
2021/05/21 09:57:34;;;;;;;;;;;;;;;20.09;40.90;99847.16;1718279;83;20175;-63
2021/05/21 10:00:00;;;;;;;;;;;;;;;20.10;40.10;99844.70;1742976;82;20193;-65
2021/05/21 10:02:30;;;;;;;;;;;;;;;20.11;40.31;99837.34;1783731;80;20155;-64
2021/05/21 10:04:57;;;;;;;;;;;;;;;20.11;40.24;99829.18;1784156;80;21106;-65
2021/05/21 10:07:24;;;;;;;;;;;;;;;20.07;39.20;99833.61;1783013;80;20155;-64
2021/05/21 10:09:50;;;;;;;;;;;;;;;19.94;38.11;99845.47;1784094;80;20175;-65
2021/05/21 10:12:17;;;;;;;;;;;;;;;19.77;38.79;99845.12;1784261;80;20812;-64
2021/05/21 10:14:49;;;;;;;;;;;;;;;19.67;38.66;99838.45;1784286;80;20178;-65
2021/05/21 10:17:19;;;;;;;;;;;;;;;19.62;39.84;99851.57;1784454;80;21018;-65
2021/05/21 10:19:46;;;;;;;;;;;;;;;19.64;40.22;99848.03;1784387;80;20182;-66
2021/05/21 10:22:17;;;;;;;;;;;;;;;19.72;40.56;99857.44;1784504;80;20160;-66
2021/05/21 10:24:45;;;;;;;;;;;;;;;19.78;39.96;99859.02;1784690;80;20529;-66
2021/05/21 10:27:25;;;;;;;;;;;;;;;19.83;39.68;99861.69;1784898;80;20215;-66
2021/05/21 10:29:58;;;;;;;;;;;;;;;19.86;39.96;99869.26;1779858;80;21096;-66
2021/05/21 10:32:30;;;;;;;;;;;;;;;19.93;38.99;99858.83;1779404;80;20241;-65
2021/05/21 10:34:57;;;;;;;;;;;;;;;19.94;39.03;99875.39;1784224;80;20139;-65
2021/05/21 10:37:42;;;;;;;;;;;;;;;19.96;39.95;99873.73;1784237;78;20183;-65
2021/05/21 10:40:27;;;;;;;;;;;;;;;20.06;39.98;99881.75;1784045;80;20168;-65
2021/05/21 10:43:17;;;;;;;;;;;;;;;20.13;39.80;99870.52;1776464;80;21114;-64
2021/05/21 10:45:53;;;;;;;;;;;;;;;20.18;39.78;99881.88;1745199;80;20544;-65
2021/05/21 10:48:26;;;;;;;;;;;;;;;20.20;40.13;99864.70;1784780;80;20564;-65
2021/05/21 10:51:11;;;;;;;;;;;;;;;20.23;39.59;99883.15;1782224;80;20521;-65
2021/05/21 10:53:40;;;;;;;;;;;;;;;20.23;38.99;99881.79;1781624;80;20191;-65
2021/05/21 10:56:07;;;;;;;;;;;;;;;20.22;39.58;99883.72;1784035;80;21787;-65
2021/05/21 10:58:35;;;;;;;;;;;;;;;20.22;38.69;99891.88;1783020;80;20143;-65
2021/05/21 11:01:15;;;;;;;;;;;;;;;20.17;36.54;99886.52;1755302;80;20144;-65
2021/05/21 11:04:05;;;;;;;;;;;;;;;19.98;37.14;99887.04;1785295;80;20179;-65
2021/05/21 11:06:34;;;;;;;;;;;;;;;19.85;37.76;99882.59;1785378;80;20179;-65
2021/05/21 11:09:06;;;;;;;;;;;;;;;19.80;37.92;99893.52;1743763;82;21099;-64
2021/05/21 11:11:47;;;;;;;;;;;;;;;19.80;37.97;99888.08;1719055;83;20581;-65
2021/05/21 11:14:32;;;;;;;;;;;;;;;19.75;36.89;99891.64;1742402;82;20165;-65
2021/05/21 11:17:11;;;;;;;;;;;;;;;19.67;37.40;99895.55;1782873;80;20227;-65
2021/05/21 11:19:59;;;;;;;;;;;;;;;19.61;36.60;99884.75;1784000;80;20248;-64
2021/05/21 11:22:37;;;;;;;;;;;;;;;19.54;37.05;99897.88;1773107;79;20212;-65
2021/05/21 11:25:15;;;;;;;;;;;;;;;19.53;38.42;99904.97;1754191;81;20180;-65
2021/05/21 11:27:42;;;;;;;;;;;;;;;19.60;38.23;99908.16;1754233;81;20172;-64
2021/05/21 11:30:11;;;;;;;;;;;;;;;19.68;38.81;99901.26;1754161;81;20220;-64
2021/05/21 11:32:40;;;;;;;;;;;;;;;19.75;38.50;99905.23;1754461;81;20679;-65
2021/05/21 11:35:08;;;;;;;;;;;;;;;19.76;37.63;99903.34;1754273;81;20192;-65
2021/05/21 11:37:35;;;;;;;;;;;;;;;19.75;37.76;99908.52;1753303;80;20180;-65
2021/05/21 11:40:04;;;;;;;;;;;;;;;19.75;37.60;99906.59;1753814;81;20161;-65
2021/05/21 11:42:30;;;;;;;;;;;;;;;19.75;35.76;99894.92;1751898;81;20552;-65
2021/05/21 11:44:57;;;;;;;;;;;;;;;19.66;35.86;99904.27;1753837;81;20241;-65
2021/05/21 11:47:26;;;;;;;;;;;;;;;19.58;36.99;99907.61;1754082;81;21076;-65
2021/05/21 11:49:53;;;;;;;;;;;;;;;19.56;37.25;99917.98;1754518;81;20176;-64
2021/05/21 11:52:19;;;;;;;;;;;;;;;19.59;36.98;99914.68;1754536;81;20541;-65
2021/05/21 11:54:46;;;;;;;;;;;;;;;19.63;37.86;99917.09;1754187;81;20592;-63
2021/05/21 11:57:16;;;;;;;;;;;;;;;19.68;37.10;99916.21;1753767;81;20172;-64
2021/05/21 11:59:43;;;;;;;;;;;;;;;19.68;36.76;99906.14;1753688;81;21762;-64
2021/05/21 12:02:14;;;;;;;;;;;;;;;19.64;37.56;99912.45;1754287;81;20236;-63
2021/05/21 12:04:41;;;;;;;;;;;;;;;19.67;37.61;99910.51;1750357;81;20192;-65
2021/05/21 12:07:26;;;;;;;;;;;;;;;19.70;38.01;99916.19;1753656;81;20259;-65
2021/05/21 12:10:03;;;;;;;;;;;;;;;19.75;38.16;99913.95;1751349;81;20145;-65
2021/05/21 12:12:31;;;;;;;;;;;;;;;19.78;37.76;99916.13;1751493;81;21141;-64
2021/05/21 12:15:11;;;;;;;;;;;;;;;19.80;38.34;99916.63;1753087;81;20177;-65
2021/05/21 12:17:46;;;;;;;;;;;;;;;19.82;38.50;99915.81;1754116;81;20188;-65
2021/05/21 12:20:14;;;;;;;;;;;;;;;19.85;39.81;99913.06;1753876;81;20180;-66
2021/05/21 12:23:03;;;;;;;;;;;;;;;19.89;40.29;99905.39;1764356;80;20167;-65
2021/05/21 12:25:30;;;;;;;;;;;;;;;19.94;39.28;99908.03;1783412;80;21106;-64
2021/05/21 12:27:58;;;;;;;;;;;;;;;19.95;40.12;99909.66;1785773;80;20179;-65
2021/05/21 12:30:25;;;;;;;;;;;;;;;19.96;39.93;99918.61;1790099;80;20205;-66
2021/05/21 12:32:52;;;;;;;;;;;;;;;19.95;39.37;99917.02;1786493;80;20194;-65
2021/05/21 12:35:19;;;;;;;;;;;;;;;19.93;39.52;99913.23;1787118;80;20350;-65
2021/05/21 12:37:49;;;;;;;;;;;;;;;19.94;39.45;99924.91;1786433;80;21102;-63
2021/05/21 12:40:16;;;;;;;;;;;;;;;19.90;38.20;99919.22;1786288;80;20159;-64
2021/05/21 12:42:50;;;;;;;;;;;;;;;19.77;38.14;99932.97;1786889;80;20219;-64
2021/05/21 12:45:20;;;;;;;;;;;;;;;19.63;38.65;99925.24;1787126;80;20194;-65
2021/05/21 12:47:50;;;;;;;;;;;;;;;19.56;39.19;99924.22;1786834;80;20223;-65
2021/05/21 12:50:18;;;;;;;;;;;;;;;19.52;38.96;99924.55;1762142;80;21154;-64
2021/05/21 12:52:54;;;;;;;;;;;;;;;19.45;38.01;99914.58;1786809;80;20226;-64
2021/05/21 12:55:20;;;;;;;;;;;;;;;19.37;39.13;99920.06;1784218;80;20147;-64